createdAt,value
2023-04-17T00:01:27.126Z,10.46
2023-04-17T00:03:54.665Z,10.39
2023-04-17T00:06:21.406Z,10.25
2023-04-17T00:08:48.021Z,10.34
2023-04-17T00:11:15.023Z,10.51
2023-04-17T00:13:43.863Z,10.43
2023-04-17T00:16:12.609Z,10.49
2023-04-17T00:18:40.312Z,10.43
2023-04-17T00:21:06.975Z,10.54
2023-04-17T00:23:34.819Z,10.32
2023-04-17T00:26:01.490Z,10.39
2023-04-17T00:28:29.199Z,10.58
2023-04-17T00:30:58.170Z,10.48
2023-04-17T00:33:25.348Z,10.15
2023-04-17T00:35:52.168Z,10.39
2023-04-17T00:38:18.815Z,10.50
2023-04-17T00:40:46.145Z,10.37
2023-04-17T00:43:12.730Z,10.46
2023-04-17T00:45:39.431Z,10.30
2023-04-17T00:48:07.574Z,10.05
2023-04-17T00:50:35.374Z,10.37
2023-04-17T00:53:02.409Z,10.32
2023-04-17T00:55:31.321Z,10.21
2023-04-17T00:57:59.432Z,10.27
2023-04-17T01:00:26.263Z,10.22
2023-04-17T01:02:53.381Z,10.21
2023-04-17T01:05:20.436Z,10.26
2023-04-17T01:07:47.096Z,10.15
2023-04-17T01:10:13.745Z,10.23
2023-04-17T01:12:41.375Z,10.32
2023-04-17T01:15:08.249Z,10.20
2023-04-17T01:17:36.107Z,10.08
2023-04-17T01:20:07.339Z,10.11
2023-04-17T01:22:34.046Z,10.04
2023-04-17T01:25:00.900Z,9.67
2023-04-17T01:27:35.127Z,10.15
2023-04-17T01:30:02.200Z,10.10
2023-04-17T01:32:31.881Z,10.11
2023-04-17T01:34:58.948Z,10.03
2023-04-17T01:37:25.786Z,9.93
2023-04-17T01:39:52.437Z,10.01
2023-04-17T01:42:19.105Z,9.98
2023-04-17T01:44:45.870Z,10.00
2023-04-17T01:47:14.514Z,9.96
2023-04-17T01:49:41.190Z,9.92
2023-04-17T01:52:07.780Z,9.96
2023-04-17T01:54:34.443Z,10.06
2023-04-17T01:57:01.279Z,10.01
2023-04-17T01:59:28.222Z,9.99
2023-04-17T02:01:55.472Z,9.88
2023-04-17T02:04:22.182Z,9.85
2023-04-17T02:06:48.915Z,9.48
2023-04-17T02:09:16.692Z,10.01
2023-04-17T02:11:43.394Z,9.94
2023-04-17T02:14:11.207Z,9.92
2023-04-17T02:16:39.977Z,9.81
2023-04-17T02:19:06.575Z,9.82
2023-04-17T02:21:33.147Z,9.99
2023-04-17T02:23:59.709Z,9.91
2023-04-17T02:26:28.149Z,9.73
2023-04-17T02:28:54.987Z,9.81
2023-04-17T02:31:22.026Z,9.87
2023-04-17T02:33:48.753Z,9.82
2023-04-17T02:36:16.216Z,9.74
2023-04-17T02:38:44.357Z,9.82
2023-04-17T02:41:12.904Z,9.79
2023-04-17T02:43:40.285Z,9.35
2023-04-17T02:46:07.002Z,9.79
2023-04-17T02:48:33.609Z,9.79
2023-04-17T02:51:00.231Z,9.76
2023-04-17T02:53:27.497Z,9.88
2023-04-17T02:55:54.160Z,9.79
2023-04-17T02:58:23.376Z,9.84
2023-04-17T03:00:50.050Z,9.82
2023-04-17T03:03:18.561Z,9.70
2023-04-17T03:05:45.374Z,9.85
2023-04-17T03:08:12.078Z,9.96
2023-04-17T03:10:45.218Z,9.96
2023-04-17T03:13:11.954Z,9.89
2023-04-17T03:15:38.633Z,9.87
2023-04-17T03:18:05.454Z,9.97
2023-04-17T03:20:32.304Z,9.88
2023-04-17T03:22:59.059Z,9.86
2023-04-17T03:25:25.850Z,9.89
2023-04-17T03:27:53.050Z,9.41
2023-04-17T03:30:23.163Z,9.39
2023-04-17T03:32:51.900Z,9.79
2023-04-17T03:35:18.613Z,9.75
2023-04-17T03:37:45.285Z,9.39
2023-04-17T03:40:13.145Z,9.70
2023-04-17T03:42:39.846Z,9.82
2023-04-17T03:45:07.183Z,9.89
2023-04-17T03:47:33.874Z,9.74
2023-04-17T03:50:00.818Z,9.32
2023-04-17T03:52:32.760Z,9.69
2023-04-17T03:54:59.891Z,9.85
2023-04-17T03:57:27.088Z,9.68
2023-04-17T03:59:53.774Z,9.76
2023-04-17T04:02:20.860Z,9.59
2023-04-17T04:04:50.461Z,9.77
2023-04-17T04:07:17.441Z,9.78
2023-04-17T04:09:44.890Z,9.44
2023-04-17T04:12:11.902Z,9.79
2023-04-17T04:14:42.169Z,9.70
2023-04-17T04:17:09.875Z,9.69
2023-04-17T04:19:38.310Z,9.52
2023-04-17T04:22:06.910Z,9.49
2023-04-17T04:24:41.283Z,9.47
2023-04-17T04:27:09.353Z,9.60
2023-04-17T04:29:37.737Z,9.60
2023-04-17T04:32:09.626Z,9.57
2023-04-17T04:34:42.122Z,9.47
2023-04-17T04:37:08.741Z,9.55
2023-04-17T04:39:40.075Z,9.20
2023-04-17T04:42:09.986Z,9.52
2023-04-17T04:44:55.671Z,9.39
2023-04-17T04:47:25.748Z,9.43
2023-04-17T04:49:53.745Z,9.34
2023-04-17T04:52:21.840Z,9.45
2023-04-17T04:54:50.277Z,9.37
2023-04-17T04:57:16.816Z,9.35
2023-04-17T04:59:45.989Z,9.41
2023-04-17T05:02:30.077Z,9.22
2023-04-17T05:04:57.480Z,9.57
2023-04-17T05:07:24.336Z,9.39
2023-04-17T05:09:51.070Z,9.35
2023-04-17T05:12:21.205Z,9.34
2023-04-17T05:14:50.115Z,9.29
2023-04-17T05:17:19.287Z,8.90
2023-04-17T05:19:46.032Z,9.38
2023-04-17T05:22:14.100Z,9.43
2023-04-17T05:24:56.672Z,9.61
2023-04-17T05:27:23.399Z,8.95
2023-04-17T05:29:50.055Z,9.47
2023-04-17T05:32:17.342Z,9.55
2023-04-17T05:34:56.776Z,9.60
2023-04-17T05:37:26.488Z,9.17
2023-04-17T05:39:54.792Z,9.60
2023-04-17T05:42:21.452Z,9.71
2023-04-17T05:44:47.995Z,9.72
2023-04-17T05:47:14.661Z,9.95
2023-04-17T05:49:43.852Z,9.83
2023-04-17T05:52:10.894Z,9.83
2023-04-17T05:54:42.007Z,9.77
2023-04-17T05:57:08.969Z,9.95
2023-04-17T05:59:36.430Z,9.97
2023-04-17T06:02:04.255Z,10.03
2023-04-17T06:04:33.463Z,10.01
2023-04-17T06:07:02.563Z,10.17
2023-04-17T06:09:29.240Z,9.97
2023-04-17T06:11:56.352Z,9.84
2023-04-17T06:14:23.014Z,10.27
2023-04-17T06:16:50.630Z,10.22
2023-04-17T06:19:18.290Z,10.49
2023-04-17T06:21:45.291Z,10.42
2023-04-17T06:24:11.944Z,10.57
2023-04-17T06:26:44.015Z,10.49
2023-04-17T06:29:10.861Z,10.50
2023-04-17T06:31:37.780Z,10.51
2023-04-17T06:34:04.884Z,10.48
2023-04-17T06:36:38.366Z,10.46
2023-04-17T06:39:05.038Z,10.26
2023-04-17T06:41:32.491Z,10.53
2023-04-17T06:44:00.597Z,10.56
2023-04-17T06:46:42.926Z,10.73
2023-04-17T06:49:09.662Z,10.70
2023-04-17T06:51:36.457Z,10.77
2023-04-17T06:54:03.064Z,10.81
2023-04-17T06:56:29.628Z,10.79
2023-04-17T06:58:57.891Z,10.87
2023-04-17T07:01:24.578Z,10.99
2023-04-17T07:03:51.405Z,11.19
2023-04-17T07:06:19.384Z,11.24
2023-04-17T07:08:46.041Z,11.12
2023-04-17T07:11:12.648Z,11.39
2023-04-17T07:13:39.237Z,11.35
2023-04-17T07:16:06.379Z,11.08
2023-04-17T07:18:33.374Z,11.01
2023-04-17T07:21:00.149Z,11.56
2023-04-17T07:23:26.743Z,11.30
2023-04-17T07:25:53.405Z,11.48
2023-04-17T07:28:20.211Z,11.50
2023-04-17T07:30:46.798Z,11.75
2023-04-17T07:33:13.515Z,11.83
2023-04-17T07:35:40.215Z,11.86
2023-04-17T07:38:06.909Z,11.96
2023-04-17T07:40:36.101Z,11.63
2023-04-17T07:43:02.742Z,12.32
2023-04-17T07:45:29.438Z,12.27
2023-04-17T07:47:56.163Z,12.14
2023-04-17T07:50:22.783Z,12.25
2023-04-17T07:52:50.573Z,12.27
2023-04-17T07:55:17.302Z,12.10
2023-04-17T07:57:46.484Z,11.97
2023-04-17T08:00:16.729Z,11.89
2023-04-17T08:02:43.584Z,11.85
2023-04-17T08:05:10.877Z,11.83
2023-04-17T08:07:37.788Z,11.47
2023-04-17T08:10:05.344Z,12.01
2023-04-17T08:12:32.824Z,11.88
2023-04-17T08:14:59.652Z,11.86
2023-04-17T08:17:29.926Z,11.91
2023-04-17T08:20:02.067Z,12.05
2023-04-17T08:22:29.039Z,12.26
2023-04-17T08:24:59.615Z,12.15
2023-04-17T08:27:26.483Z,12.33
2023-04-17T08:29:56.497Z,12.90
2023-04-17T08:32:23.355Z,12.98
2023-04-17T08:34:49.976Z,13.47
2023-04-17T08:37:16.643Z,13.71
2023-04-17T08:39:43.701Z,13.62
2023-04-17T08:42:15.372Z,14.02
2023-04-17T08:44:44.557Z,14.49
2023-04-17T08:47:12.792Z,14.87
2023-04-17T08:49:43.286Z,15.06
2023-04-17T08:52:10.824Z,15.19
2023-04-17T08:54:38.352Z,15.22
2023-04-17T08:57:06.096Z,14.73
2023-04-17T08:59:32.951Z,14.72
2023-04-17T09:02:07.577Z,14.63
2023-04-17T09:04:38.521Z,14.47
2023-04-17T09:07:11.088Z,14.53
2023-04-17T09:09:51.850Z,14.95
2023-04-17T09:12:20.389Z,15.30
2023-04-17T09:14:47.288Z,15.79
2023-04-17T09:17:19.454Z,15.91
2023-04-17T09:20:11.736Z,16.63
2023-04-17T09:22:40.419Z,16.59
2023-04-17T09:25:23.151Z,17.48
2023-04-17T09:27:49.793Z,17.78
2023-04-17T09:30:16.520Z,17.71
2023-04-17T09:32:43.359Z,17.27
2023-04-17T09:35:10.032Z,17.63
2023-04-17T09:37:51.421Z,17.54
2023-04-17T09:40:23.682Z,17.91
2023-04-17T09:43:02.157Z,17.72
2023-04-17T09:45:35.493Z,18.16
2023-04-17T09:48:13.106Z,17.56
2023-04-17T09:50:40.232Z,17.98
2023-04-17T09:53:07.977Z,17.99
2023-04-17T09:55:36.960Z,18.40
2023-04-17T09:58:06.098Z,18.39
2023-04-17T10:00:32.831Z,18.23
2023-04-17T10:02:59.844Z,17.75
2023-04-17T10:05:29.153Z,17.85
2023-04-17T10:07:56.520Z,17.64
2023-04-17T10:10:26.249Z,17.78
2023-04-17T10:12:57.250Z,17.77
2023-04-17T10:15:25.554Z,17.42
2023-04-17T10:17:53.470Z,17.92
2023-04-17T10:20:28.787Z,18.17
2023-04-17T10:22:56.333Z,18.68
2023-04-17T10:25:27.439Z,18.81
2023-04-17T10:27:55.217Z,18.87
2023-04-17T10:30:28.674Z,18.77
2023-04-17T10:33:19.785Z,18.87
2023-04-17T10:35:49.078Z,18.25
2023-04-17T10:38:16.296Z,18.03
2023-04-17T10:40:43.828Z,18.29
2023-04-17T10:43:11.245Z,18.38
2023-04-17T10:46:09.499Z,18.20
2023-04-17T10:48:46.714Z,18.37
2023-04-17T10:51:28.884Z,18.54
2023-04-17T10:53:58.490Z,18.52
2023-04-17T10:56:27.029Z,18.62
2023-04-17T10:59:00.101Z,18.15
2023-04-17T11:01:31.972Z,18.49
2023-04-17T11:04:01.802Z,19.27
2023-04-17T11:06:31.569Z,19.31
2023-04-17T11:09:00.415Z,19.16
2023-04-17T11:11:43.014Z,19.11
2023-04-17T11:14:14.621Z,19.35
2023-04-17T11:16:44.157Z,19.66
2023-04-17T11:19:17.008Z,20.28
2023-04-17T11:21:45.312Z,20.43
2023-04-17T11:24:12.067Z,21.15
2023-04-17T11:26:45.661Z,21.73
2023-04-17T11:29:22.861Z,22.13
2023-04-17T11:31:51.974Z,22.18
2023-04-17T11:34:19.274Z,22.57
2023-04-17T11:37:04.478Z,23.22
2023-04-17T11:39:33.804Z,23.26
2023-04-17T11:42:02.532Z,23.58
2023-04-17T11:44:29.746Z,23.71
2023-04-17T11:46:58.661Z,22.85
2023-04-17T11:49:26.451Z,23.47
2023-04-17T11:51:53.943Z,23.32
2023-04-17T11:54:25.523Z,23.56
2023-04-17T11:57:12.558Z,23.19
2023-04-17T11:59:42.074Z,21.95
2023-04-17T12:02:09.383Z,22.61
2023-04-17T12:04:37.776Z,22.48
2023-04-17T12:07:06.061Z,23.29
2023-04-17T12:09:34.015Z,22.93
2023-04-17T12:12:03.749Z,23.10
2023-04-17T12:14:31.434Z,23.99
2023-04-17T12:16:59.340Z,24.70
2023-04-17T12:19:29.124Z,26.41
2023-04-17T12:21:56.562Z,26.78
2023-04-17T12:24:24.884Z,26.64
2023-04-17T12:26:52.418Z,26.24
2023-04-17T12:29:26.505Z,26.16
2023-04-17T12:31:59.523Z,26.05
2023-04-17T12:34:27.803Z,26.20
2023-04-17T12:36:54.736Z,26.75
2023-04-17T12:39:21.425Z,27.19
2023-04-17T12:41:48.113Z,26.74
2023-04-17T12:44:15.019Z,26.20
2023-04-17T12:46:42.038Z,26.03
2023-04-17T12:49:09.041Z,26.63
2023-04-17T12:51:37.995Z,27.05
2023-04-17T12:54:05.056Z,25.85
2023-04-17T12:56:32.061Z,25.48
2023-04-17T12:59:01.306Z,26.34
2023-04-17T13:01:29.794Z,26.66
2023-04-17T13:03:56.959Z,26.57
2023-04-17T13:06:23.869Z,26.61
2023-04-17T13:08:50.428Z,25.98
2023-04-17T13:11:16.969Z,26.09
2023-04-17T13:13:43.558Z,26.41
2023-04-17T13:16:10.562Z,26.88
2023-04-17T13:18:37.549Z,27.07
2023-04-17T13:21:04.311Z,27.60
2023-04-17T13:23:31.242Z,27.07
2023-04-17T13:25:57.873Z,25.91
2023-04-17T13:28:24.423Z,24.47
2023-04-17T13:30:51.033Z,25.92
2023-04-17T13:33:17.662Z,26.62
2023-04-17T13:35:44.312Z,25.93
2023-04-17T13:38:10.931Z,25.09
2023-04-17T13:40:38.526Z,24.19
2023-04-17T13:43:06.605Z,23.51
2023-04-17T13:45:33.266Z,22.82
2023-04-17T13:48:00.342Z,22.77
2023-04-17T13:50:27.500Z,22.66
2023-04-17T13:52:54.091Z,22.68
2023-04-17T13:55:20.723Z,22.49
2023-04-17T13:57:48.375Z,22.91
2023-04-17T14:00:15.494Z,23.33
2023-04-17T14:02:43.064Z,24.26
2023-04-17T14:05:09.998Z,24.09
2023-04-17T14:07:37.650Z,24.08
2023-04-17T14:10:04.706Z,24.26
2023-04-17T14:12:31.512Z,24.71
2023-04-17T14:14:58.329Z,25.40
2023-04-17T14:17:25.175Z,25.28
2023-04-17T14:19:52.503Z,25.24
2023-04-17T14:22:20.057Z,24.67
2023-04-17T14:24:46.644Z,23.44
2023-04-17T14:27:13.269Z,23.40
2023-04-17T14:29:39.917Z,23.96
2023-04-17T14:32:06.591Z,25.10
2023-04-17T14:34:33.277Z,24.75
2023-04-17T14:37:00.052Z,24.50
2023-04-17T14:39:27.573Z,23.98
2023-04-17T14:41:55.040Z,24.11
2023-04-17T14:44:21.697Z,24.55
2023-04-17T14:46:48.731Z,24.96
2023-04-17T14:49:15.754Z,24.64
2023-04-17T14:51:42.363Z,25.53
2023-04-17T14:54:09.015Z,26.26
2023-04-17T14:56:35.635Z,26.48
2023-04-17T14:59:03.127Z,26.79
2023-04-17T15:01:29.801Z,26.88
2023-04-17T15:03:57.212Z,26.78
2023-04-17T15:06:24.917Z,26.91
2023-04-17T15:08:51.505Z,26.30
2023-04-17T15:11:18.106Z,26.47
2023-04-17T15:13:44.690Z,26.36
2023-04-17T15:16:11.387Z,25.90
2023-04-17T15:18:39.321Z,25.10
2023-04-17T15:21:06.328Z,24.84
2023-04-17T15:23:34.527Z,25.36
2023-04-17T15:26:01.397Z,25.52
2023-04-17T15:28:28.341Z,26.56
2023-04-17T15:30:56.805Z,27.20
2023-04-17T15:33:23.521Z,27.35
2023-04-17T15:35:58.470Z,26.92
2023-04-17T15:38:26.217Z,26.51
2023-04-17T15:40:53.551Z,26.27
2023-04-17T15:43:20.870Z,26.04
2023-04-17T15:45:51.626Z,26.12
2023-04-17T15:48:18.215Z,26.59
2023-04-17T15:50:44.909Z,26.67
2023-04-17T15:53:13.179Z,26.67
2023-04-17T15:55:41.071Z,26.44
2023-04-17T15:58:07.830Z,26.03
2023-04-17T16:00:34.473Z,26.56
2023-04-17T16:03:01.402Z,26.61
2023-04-17T16:05:30.402Z,26.66
2023-04-17T16:07:57.261Z,26.42
2023-04-17T16:10:24.103Z,26.18
2023-04-17T16:12:50.894Z,26.30
2023-04-17T16:15:17.937Z,26.25
2023-04-17T16:17:45.739Z,25.60
2023-04-17T16:20:12.683Z,23.42
2023-04-17T16:22:39.339Z,23.10
2023-04-17T16:25:06.661Z,23.62
2023-04-17T16:27:33.649Z,23.75
2023-04-17T16:30:00.312Z,23.02
2023-04-17T16:32:27.341Z,22.95
2023-04-17T16:34:54.312Z,22.88
2023-04-17T16:37:21.034Z,22.04
2023-04-17T16:39:47.749Z,22.06
2023-04-17T16:42:14.659Z,21.85
2023-04-17T16:44:41.228Z,21.85
2023-04-17T16:47:13.247Z,21.28
2023-04-17T16:49:41.144Z,20.34
2023-04-17T16:52:07.809Z,19.42
2023-04-17T16:54:34.812Z,18.75
2023-04-17T16:57:01.472Z,18.38
2023-04-17T16:59:28.204Z,18.17
2023-04-17T17:01:54.827Z,17.83
2023-04-17T17:04:21.522Z,17.72
2023-04-17T17:06:48.165Z,17.66
2023-04-17T17:09:15.018Z,17.81
2023-04-17T17:11:41.868Z,17.36
2023-04-17T17:14:08.584Z,17.24
2023-04-17T17:16:35.227Z,17.12
2023-04-17T17:19:02.620Z,17.20
2023-04-17T17:21:29.473Z,17.00
2023-04-17T17:23:56.052Z,17.52
2023-04-17T17:26:22.670Z,17.76
2023-04-17T17:28:51.314Z,17.56
2023-04-17T17:31:18.352Z,17.80
2023-04-17T17:33:45.158Z,17.90
2023-04-17T17:36:12.129Z,17.69
2023-04-17T17:38:38.929Z,17.38
2023-04-17T17:41:05.731Z,17.37
2023-04-17T17:43:32.344Z,17.52
2023-04-17T17:45:59.017Z,17.37
2023-04-17T17:48:25.769Z,17.11
2023-04-17T17:50:57.369Z,16.98
2023-04-17T17:53:26.229Z,16.41
2023-04-17T17:55:57.219Z,16.94
2023-04-17T17:58:24.466Z,16.54
2023-04-17T18:00:52.122Z,16.55
2023-04-17T18:03:19.228Z,16.22
2023-04-17T18:05:46.837Z,16.13
2023-04-17T18:08:14.119Z,15.43
2023-04-17T18:10:40.844Z,15.45
2023-04-17T18:13:07.389Z,14.68
2023-04-17T18:15:35.533Z,14.69
2023-04-17T18:18:02.153Z,14.91
2023-04-17T18:20:28.789Z,14.74
2023-04-17T18:22:55.731Z,14.63
2023-04-17T18:25:22.360Z,14.37
2023-04-17T18:27:48.944Z,14.23
2023-04-17T18:30:15.744Z,14.07
2023-04-17T18:32:42.470Z,14.10
2023-04-17T18:35:09.414Z,13.94
2023-04-17T18:37:36.112Z,13.93
2023-04-17T18:40:03.131Z,13.89
2023-04-17T18:42:29.810Z,13.78
2023-04-17T18:44:56.367Z,13.43
2023-04-17T18:47:23.087Z,13.61
2023-04-17T18:49:52.343Z,13.62
2023-04-17T18:52:19.192Z,12.94
2023-04-17T18:54:45.910Z,13.75
2023-04-17T18:57:12.611Z,13.95
2023-04-17T18:59:42.001Z,13.83
2023-04-17T19:02:09.776Z,13.81
2023-04-17T19:04:36.575Z,13.30
2023-04-17T19:07:03.192Z,13.86
2023-04-17T19:09:29.916Z,13.73
2023-04-17T19:11:58.503Z,13.67
2023-04-17T19:14:25.240Z,13.64
2023-04-17T19:16:52.033Z,13.53
2023-04-17T19:19:19.737Z,13.52
2023-04-17T19:21:46.391Z,13.29
2023-04-17T19:24:13.038Z,13.29
2023-04-17T19:26:39.696Z,13.16
2023-04-17T19:29:06.248Z,12.91
2023-04-17T19:31:33.243Z,12.84
2023-04-17T19:34:00.394Z,12.65
2023-04-17T19:36:28.118Z,12.51
2023-04-17T19:38:58.850Z,12.57
2023-04-17T19:41:26.209Z,12.07
2023-04-17T19:43:54.115Z,12.54
2023-04-17T19:46:21.996Z,11.97
2023-04-17T19:48:49.560Z,12.46
2023-04-17T19:51:16.724Z,12.27
2023-04-17T19:53:44.206Z,12.25
2023-04-17T19:56:10.898Z,11.58
2023-04-17T19:58:38.398Z,11.82
2023-04-17T20:01:05.387Z,11.73
2023-04-17T20:03:33.079Z,12.26
2023-04-17T20:06:00.380Z,12.14
2023-04-17T20:08:27.124Z,12.22
2023-04-17T20:10:53.924Z,11.65
2023-04-17T20:13:21.302Z,12.27
2023-04-17T20:15:47.867Z,12.18
2023-04-17T20:18:14.478Z,12.05
2023-04-17T20:20:41.110Z,12.13
2023-04-17T20:23:07.891Z,12.20
2023-04-17T20:25:34.549Z,12.28
2023-04-17T20:28:02.796Z,12.07
2023-04-17T20:30:29.543Z,12.08
2023-04-17T20:32:56.766Z,11.64
2023-04-17T20:35:26.304Z,11.89
2023-04-17T20:37:53.056Z,11.91
2023-04-17T20:40:20.054Z,11.54
2023-04-17T20:42:47.692Z,11.45
2023-04-17T20:45:14.663Z,11.82
2023-04-17T20:50:14.752Z,11.17
2023-04-17T20:52:41.374Z,11.49
2023-04-17T20:55:08.424Z,11.42
2023-04-17T20:57:35.575Z,11.65
2023-04-17T21:00:02.224Z,11.29
2023-04-17T21:02:30.177Z,11.54
2023-04-17T21:04:58.429Z,11.60
2023-04-17T21:07:25.495Z,11.42
2023-04-17T21:09:52.164Z,11.51
2023-04-17T21:12:19.001Z,11.41
2023-04-17T21:14:45.827Z,11.56
2023-04-17T21:17:12.530Z,11.54
2023-04-17T21:19:40.237Z,11.54
2023-04-17T21:22:06.945Z,11.34
2023-04-17T21:24:33.611Z,11.36
2023-04-17T21:27:01.320Z,11.51
2023-04-17T21:29:28.836Z,11.02
2023-04-17T21:31:56.308Z,11.28
2023-04-17T21:34:23.991Z,11.07
2023-04-17T21:36:53.085Z,11.07
2023-04-17T21:39:20.478Z,11.22
2023-04-17T21:41:47.137Z,11.11
2023-04-17T21:44:13.906Z,10.97
2023-04-17T21:46:43.195Z,10.93
2023-04-17T21:49:09.761Z,10.93
2023-04-17T21:51:36.370Z,10.96
2023-04-17T21:54:03.304Z,10.83
2023-04-17T21:56:29.920Z,10.75
2023-04-17T21:58:56.574Z,10.97
2023-04-17T22:01:23.280Z,10.92
2023-04-17T22:03:49.977Z,11.07
2023-04-17T22:06:16.645Z,11.15
2023-04-17T22:08:43.217Z,11.24
2023-04-17T22:11:09.930Z,11.09
2023-04-17T22:13:36.606Z,11.20
2023-04-17T22:16:03.639Z,10.88
2023-04-17T22:18:30.329Z,11.12
2023-04-17T22:20:56.980Z,11.05
2023-04-17T22:23:23.697Z,10.84
2023-04-17T22:25:50.381Z,10.61
2023-04-17T22:28:17.034Z,10.33
2023-04-17T22:30:43.839Z,10.73
2023-04-17T22:33:10.431Z,10.53
2023-04-17T22:35:37.139Z,10.70
2023-04-17T22:38:03.802Z,10.49
2023-04-17T22:40:30.493Z,10.67
2023-04-17T22:42:57.142Z,10.47
2023-04-17T22:45:23.784Z,10.45
2023-04-17T22:47:50.443Z,10.53
2023-04-17T22:50:17.395Z,10.29
2023-04-17T22:52:44.023Z,10.29
2023-04-17T22:55:11.149Z,10.40
2023-04-17T22:57:37.768Z,10.18
2023-04-17T23:00:07.890Z,10.20
2023-04-17T23:02:36.001Z,10.09
2023-04-17T23:05:03.170Z,10.09
2023-04-17T23:07:29.971Z,10.14
2023-04-17T23:09:56.556Z,9.67
2023-04-17T23:12:23.169Z,10.04
2023-04-17T23:14:49.778Z,10.09
2023-04-17T23:17:16.439Z,9.85
2023-04-17T23:19:43.055Z,9.69
2023-04-17T23:22:09.767Z,9.87
2023-04-17T23:24:36.596Z,9.49
2023-04-17T23:27:03.640Z,9.76
2023-04-17T23:29:30.300Z,9.49
2023-04-17T23:31:56.841Z,9.49
2023-04-17T23:34:23.513Z,9.45
2023-04-17T23:36:50.116Z,9.61
2023-04-17T23:39:16.766Z,9.40
2023-04-17T23:41:43.455Z,9.34
2023-04-17T23:44:10.029Z,9.22
2023-04-17T23:46:36.868Z,9.19
2023-04-17T23:49:03.796Z,8.95
2023-04-17T23:51:31.511Z,8.92
2023-04-17T23:53:59.890Z,9.12
2023-04-17T23:56:29.512Z,9.01
2023-04-17T23:58:56.727Z,8.88
